createdAt,value
2022-12-12T00:16:55.323Z,7.03
2022-12-12T00:19:29.115Z,7.10
2022-12-12T00:22:03.447Z,7.63
2022-12-12T00:24:30.611Z,6.87
2022-12-12T00:29:31.440Z,7.70
2022-12-12T00:31:58.535Z,7.50
2022-12-12T00:34:25.678Z,7.68
2022-12-12T00:36:59.218Z,7.82
2022-12-12T00:39:33.149Z,7.40
2022-12-12T00:42:00.372Z,7.73
2022-12-12T00:47:02.925Z,7.07
2022-12-12T00:49:30.298Z,7.20
2022-12-12T00:52:04.360Z,7.97
2022-12-12T00:54:31.557Z,7.53
2022-12-12T00:56:58.646Z,7.25
2022-12-12T00:59:32.245Z,7.35
2022-12-12T01:01:59.573Z,7.47
2022-12-12T01:04:33.113Z,6.60
2022-12-12T01:07:00.349Z,7.40
2022-12-12T01:09:34.413Z,7.05
2022-12-12T01:12:01.596Z,6.80
2022-12-12T01:14:28.713Z,7.18
2022-12-12T01:17:02.118Z,6.32
2022-12-12T01:19:29.430Z,7.17
2022-12-12T01:24:30.573Z,6.13
2022-12-12T01:29:31.219Z,6.33
2022-12-12T01:31:58.596Z,7.10
2022-12-12T01:34:32.323Z,7.67
2022-12-12T01:36:59.554Z,6.57
2022-12-12T01:39:26.665Z,7.47
2022-12-12T01:42:00.396Z,6.70
2022-12-12T01:44:48.075Z,6.87
2022-12-12T01:47:23.427Z,7.32
2022-12-12T01:49:53.453Z,7.13
2022-12-12T01:52:22.187Z,7.13
2022-12-12T01:55:00.319Z,6.87
2022-12-12T01:57:30.256Z,6.93
2022-12-12T02:00:04.334Z,6.93
2022-12-12T02:02:31.538Z,7.10
2022-12-12T02:05:00.703Z,6.90
2022-12-12T02:07:34.284Z,7.17
2022-12-12T02:10:01.447Z,6.77
2022-12-12T02:12:35.325Z,6.38
2022-12-12T02:15:02.794Z,6.70
2022-12-12T02:18:12.853Z,6.70
2022-12-12T02:20:56.927Z,6.20
2022-12-12T02:23:53.333Z,6.50
2022-12-12T02:26:39.010Z,6.47
2022-12-12T02:29:16.263Z,7.17
2022-12-12T02:31:53.159Z,7.15
2022-12-12T02:34:37.325Z,4.83
2022-12-12T02:37:10.740Z,6.13
2022-12-12T02:39:44.322Z,7.33
2022-12-12T02:42:18.076Z,6.00
2022-12-12T02:44:54.322Z,6.73
2022-12-12T02:47:32.041Z,6.40
2022-12-12T02:50:13.404Z,6.50
2022-12-12T02:52:42.681Z,7.90
2022-12-12T02:55:10.044Z,6.60
2022-12-12T02:57:44.230Z,6.37
2022-12-12T03:00:14.817Z,6.63
2022-12-12T03:03:31.836Z,6.03
2022-12-12T03:06:35.073Z,6.90
2022-12-12T03:09:14.258Z,6.73
2022-12-12T03:11:41.342Z,6.63
2022-12-12T03:14:21.200Z,6.78
2022-12-12T03:17:19.146Z,5.80
2022-12-12T03:20:01.324Z,6.13
2022-12-12T03:22:47.263Z,6.07
2022-12-12T03:25:27.205Z,5.57
2022-12-12T03:28:05.182Z,5.87
2022-12-12T03:33:30.585Z,5.83
2022-12-12T03:36:10.252Z,5.73
2022-12-12T03:38:39.240Z,5.90
2022-12-12T03:41:14.247Z,5.67
2022-12-12T03:43:45.465Z,5.20
2022-12-12T03:46:27.196Z,5.57
2022-12-12T03:49:00.933Z,5.57
2022-12-12T03:51:38.256Z,5.40
2022-12-12T03:54:14.523Z,4.03
2022-12-12T03:56:52.365Z,5.20
2022-12-12T03:59:27.291Z,4.88
2022-12-12T04:02:06.300Z,4.87
2022-12-12T04:04:55.304Z,5.33
2022-12-12T04:07:26.981Z,4.73
2022-12-12T04:10:19.335Z,4.97
2022-12-12T04:13:05.303Z,5.50
2022-12-12T04:15:39.315Z,5.40
2022-12-12T04:18:25.388Z,5.00
2022-12-12T04:21:25.157Z,4.63
2022-12-12T04:23:55.191Z,4.60
2022-12-12T04:26:46.146Z,4.80
2022-12-12T04:29:26.335Z,4.67
2022-12-12T04:32:09.198Z,5.13
2022-12-12T04:34:40.239Z,4.90
2022-12-12T04:37:14.155Z,5.07
2022-12-12T04:39:41.761Z,4.60
2022-12-12T04:42:16.149Z,5.60
2022-12-12T04:44:44.873Z,4.15
2022-12-12T04:47:19.309Z,5.05
2022-12-12T04:49:47.895Z,4.80
2022-12-12T04:52:16.431Z,4.77
2022-12-12T04:54:55.316Z,4.67
2022-12-12T04:57:32.140Z,5.10
2022-12-12T04:59:59.377Z,4.85
2022-12-12T05:02:47.204Z,5.35
2022-12-12T05:05:26.018Z,3.97
2022-12-12T05:08:04.191Z,5.47
2022-12-12T05:10:31.533Z,5.88
2022-12-12T05:15:32.413Z,5.30
2022-12-12T05:18:23.326Z,5.67
2022-12-12T05:20:50.757Z,5.47
2022-12-12T05:23:18.262Z,6.03
2022-12-12T05:25:52.322Z,5.50
2022-12-12T05:28:19.460Z,5.60
2022-12-12T05:30:53.601Z,5.90
2022-12-12T05:33:20.764Z,5.80
2022-12-12T05:35:47.844Z,6.00
2022-12-12T05:38:21.220Z,5.28
2022-12-12T05:40:48.413Z,5.50
2022-12-12T05:43:22.611Z,6.38
2022-12-12T05:45:49.961Z,6.65
2022-12-12T05:50:56.327Z,6.20
2022-12-12T05:53:23.505Z,6.38
2022-12-12T05:55:58.394Z,5.72
2022-12-12T05:58:25.696Z,6.18
2022-12-12T06:03:26.253Z,5.97
2022-12-12T06:05:53.413Z,6.13
2022-12-12T06:08:27.351Z,7.05
2022-12-12T06:10:54.552Z,5.97
2022-12-12T06:13:21.945Z,6.30
2022-12-12T06:18:29.186Z,6.07
2022-12-12T06:21:09.431Z,6.03
2022-12-12T06:23:37.908Z,6.53
2022-12-12T06:26:05.549Z,6.30
2022-12-12T06:28:39.412Z,6.60
2022-12-12T06:31:11.309Z,6.65
2022-12-12T06:33:46.225Z,6.70
2022-12-12T06:36:23.685Z,7.18
2022-12-12T06:38:58.373Z,5.32
2022-12-12T06:41:26.497Z,6.25
2022-12-12T06:43:53.972Z,7.35
2022-12-12T06:46:32.341Z,6.80
2022-12-12T06:48:59.877Z,6.85
2022-12-12T06:51:35.279Z,6.53
2022-12-12T06:54:02.460Z,7.25
2022-12-12T06:56:36.449Z,8.18
2022-12-12T06:59:03.630Z,6.85
2022-12-12T07:01:30.877Z,6.55
2022-12-12T07:04:05.569Z,6.35
2022-12-12T07:06:32.838Z,7.00
2022-12-12T07:09:00.521Z,7.05
2022-12-12T07:11:34.336Z,6.40
2022-12-12T07:14:03.760Z,6.10
2022-12-12T07:16:37.487Z,6.70
2022-12-12T07:19:11.286Z,6.80
2022-12-12T07:21:52.397Z,7.07
2022-12-12T07:24:19.547Z,6.32
2022-12-12T07:26:46.731Z,6.22
2022-12-12T07:29:21.257Z,7.28
2022-12-12T07:31:48.344Z,7.13
2022-12-12T07:34:15.481Z,6.82
2022-12-12T07:36:49.380Z,6.07
2022-12-12T07:39:20.808Z,6.63
2022-12-12T07:41:55.482Z,6.45
2022-12-12T07:44:22.903Z,6.95
2022-12-12T07:49:23.258Z,6.13
2022-12-12T07:51:50.471Z,7.25
2022-12-12T07:54:24.380Z,7.47
2022-12-12T07:56:51.585Z,6.97
2022-12-12T07:59:18.661Z,7.05
2022-12-12T08:01:52.276Z,6.88
2022-12-12T08:04:19.542Z,7.10
2022-12-12T08:07:00.670Z,6.32
2022-12-12T08:09:30.122Z,7.20
2022-12-12T08:12:05.394Z,7.43
2022-12-12T08:14:32.790Z,6.53
2022-12-12T08:17:00.005Z,6.75
2022-12-12T08:19:33.283Z,6.30
2022-12-12T08:22:00.429Z,6.65
2022-12-12T08:24:35.429Z,5.75
2022-12-12T08:27:02.617Z,5.80
2022-12-12T08:29:29.726Z,6.53
2022-12-12T08:32:06.292Z,5.78
2022-12-12T08:34:33.455Z,5.68
2022-12-12T08:37:00.524Z,5.82
2022-12-12T08:39:34.236Z,5.03
2022-12-12T08:42:08.349Z,5.72
2022-12-12T08:44:35.680Z,4.85
2022-12-12T08:49:36.285Z,4.72
2022-12-12T08:52:06.017Z,5.10
2022-12-12T08:54:40.438Z,5.30
2022-12-12T08:57:07.511Z,5.47
2022-12-12T08:59:34.762Z,5.82
2022-12-12T09:02:08.455Z,5.68
2022-12-12T09:04:35.769Z,5.78
2022-12-12T09:07:08.239Z,6.13
2022-12-12T09:09:42.278Z,5.75
2022-12-12T09:12:09.554Z,5.88
2022-12-12T09:14:43.427Z,5.28
2022-12-12T09:17:10.638Z,5.63
2022-12-12T09:19:52.365Z,6.05
2022-12-12T09:22:19.510Z,5.85
2022-12-12T09:24:46.600Z,6.00
2022-12-12T09:27:20.391Z,5.38
2022-12-12T09:29:47.671Z,5.35
2022-12-12T09:32:24.562Z,5.35
2022-12-12T09:34:52.162Z,5.65
2022-12-12T09:37:19.315Z,5.25
2022-12-12T09:39:53.330Z,5.45
2022-12-12T09:42:22.154Z,5.32
2022-12-12T09:44:50.355Z,5.50
2022-12-12T09:47:26.317Z,6.10
2022-12-12T09:49:54.933Z,4.65
2022-12-12T09:52:39.506Z,4.15
2022-12-12T09:55:23.644Z,5.43
2022-12-12T09:58:01.293Z,4.93
2022-12-12T10:00:31.687Z,4.68
2022-12-12T10:03:15.437Z,5.07
2022-12-12T10:05:45.751Z,5.65
2022-12-12T10:08:29.418Z,4.97
2022-12-12T10:11:05.220Z,5.65
2022-12-12T10:13:34.042Z,4.55
2022-12-12T10:16:15.395Z,4.82
2022-12-12T10:19:04.349Z,4.65
2022-12-12T10:21:39.333Z,4.63
2022-12-12T10:24:15.802Z,4.90
2022-12-12T10:26:49.208Z,4.50
2022-12-12T10:29:19.632Z,3.90
2022-12-12T10:32:12.513Z,4.22
2022-12-12T10:35:03.432Z,4.55
2022-12-12T10:38:00.197Z,3.92
2022-12-12T10:40:47.959Z,4.80
2022-12-12T10:43:25.368Z,4.20
2022-12-12T10:46:04.815Z,4.30
2022-12-12T10:48:38.357Z,4.22
2022-12-12T10:51:07.551Z,4.18
2022-12-12T10:53:34.985Z,3.80
2022-12-12T10:58:43.143Z,3.58
2022-12-12T11:01:28.184Z,4.10
2022-12-12T11:04:06.171Z,4.22
2022-12-12T11:09:26.219Z,4.28
2022-12-12T11:12:10.348Z,4.00
2022-12-12T11:14:41.480Z,4.25
2022-12-12T11:17:26.266Z,4.88
2022-12-12T11:20:01.255Z,5.00
2022-12-12T11:22:38.270Z,3.88
2022-12-12T11:25:05.752Z,5.03
2022-12-12T11:27:45.553Z,5.60
2022-12-12T11:30:31.392Z,5.05
2022-12-12T11:33:05.350Z,5.95
2022-12-12T11:35:39.093Z,6.65
2022-12-12T11:38:25.337Z,4.60
2022-12-12T11:41:03.016Z,5.78
2022-12-12T11:43:38.336Z,5.05
2022-12-12T11:46:08.251Z,5.70
2022-12-12T11:49:08.535Z,5.30
2022-12-12T11:51:37.878Z,5.40
2022-12-12T11:54:18.414Z,4.93
2022-12-12T11:56:57.681Z,5.72
2022-12-12T11:59:50.375Z,6.22
2022-12-12T12:02:51.256Z,5.55
2022-12-12T12:05:30.548Z,5.68
2022-12-12T12:08:04.391Z,4.97
2022-12-12T12:10:43.994Z,4.20
2022-12-12T12:13:26.213Z,5.47
2022-12-12T12:16:02.324Z,4.45
2022-12-12T12:18:56.214Z,4.80
2022-12-12T12:21:27.663Z,4.35
2022-12-12T12:24:21.229Z,4.88
2022-12-12T12:26:52.514Z,4.13
2022-12-12T12:29:33.239Z,4.15
2022-12-12T12:32:19.122Z,4.15
2022-12-12T12:35:03.226Z,4.35
2022-12-12T12:37:42.382Z,4.43
2022-12-12T12:40:24.208Z,4.47
2022-12-12T12:43:17.800Z,4.40
2022-12-12T12:46:00.424Z,5.18
2022-12-12T12:48:39.037Z,4.38
2022-12-12T12:51:17.227Z,5.13
2022-12-12T12:53:47.314Z,4.22
2022-12-12T12:56:38.481Z,4.75
2022-12-12T12:59:14.950Z,4.78
2022-12-12T13:01:51.287Z,4.68
2022-12-12T13:04:36.351Z,4.03
2022-12-12T13:07:10.369Z,4.78
2022-12-12T13:09:56.405Z,4.55
2022-12-12T13:12:36.226Z,4.55
2022-12-12T13:15:06.291Z,3.97
2022-12-12T13:17:58.309Z,5.13
2022-12-12T13:20:39.441Z,3.97
2022-12-12T13:23:12.280Z,3.78
2022-12-12T13:25:49.440Z,4.20
2022-12-12T13:28:19.097Z,4.25
2022-12-12T13:30:59.499Z,4.68
2022-12-12T13:33:46.606Z,3.97
2022-12-12T13:36:29.955Z,4.57
2022-12-12T13:38:59.016Z,3.63
2022-12-12T13:41:26.170Z,4.63
2022-12-12T13:44:04.487Z,4.57
2022-12-12T13:46:36.152Z,4.70
2022-12-12T13:49:13.634Z,5.00
2022-12-12T13:51:41.907Z,5.13
2022-12-12T13:54:13.160Z,5.18
2022-12-12T13:56:50.335Z,5.40
2022-12-12T13:59:30.228Z,5.65
2022-12-12T14:02:20.840Z,5.18
2022-12-12T14:04:56.238Z,5.07
2022-12-12T14:07:25.633Z,5.25
2022-12-12T14:10:01.250Z,5.28
2022-12-12T14:12:32.219Z,5.32
2022-12-12T14:15:07.246Z,5.22
2022-12-12T14:17:42.177Z,4.90
2022-12-12T14:20:33.266Z,5.50
2022-12-12T14:23:00.669Z,5.93
2022-12-12T14:28:01.376Z,5.40
2022-12-12T14:30:41.438Z,5.40
2022-12-12T14:33:28.735Z,5.13
2022-12-12T14:36:06.232Z,5.20
2022-12-12T14:38:44.694Z,5.25
2022-12-12T14:41:25.249Z,4.47
2022-12-12T14:44:38.147Z,5.00
2022-12-12T14:46:51.325Z,4.75
2022-12-12T14:49:19.528Z,4.50
2022-12-12T14:51:56.239Z,4.57
2022-12-12T14:54:24.606Z,4.88
2022-12-12T14:56:59.262Z,4.45
2022-12-12T14:59:28.244Z,4.90
2022-12-12T15:02:06.231Z,4.28
2022-12-12T15:07:08.477Z,4.53
2022-12-12T15:09:54.442Z,4.93
2022-12-12T15:12:30.444Z,4.27
2022-12-12T15:14:58.109Z,4.35
2022-12-12T15:17:29.725Z,4.50
2022-12-12T15:20:03.334Z,4.50
2022-12-12T15:22:31.532Z,3.60
2022-12-12T15:25:09.340Z,4.47
2022-12-12T15:27:46.012Z,3.88
2022-12-12T15:30:32.526Z,3.80
2022-12-12T15:33:00.217Z,3.77
2022-12-12T15:35:27.537Z,4.57
2022-12-12T15:40:32.282Z,3.97
2022-12-12T15:43:13.647Z,4.28
2022-12-12T15:45:42.924Z,4.20
2022-12-12T15:48:23.312Z,3.72
2022-12-12T15:50:57.387Z,4.32
2022-12-12T15:53:31.320Z,4.28
2022-12-12T15:56:19.258Z,4.73
2022-12-12T15:58:47.638Z,4.00
2022-12-12T16:01:25.297Z,4.43
2022-12-12T16:04:11.524Z,4.88
2022-12-12T16:06:46.257Z,4.07
2022-12-12T16:09:22.754Z,3.83
2022-12-12T16:11:56.263Z,4.87
2022-12-12T16:14:41.796Z,4.40
2022-12-12T16:17:27.268Z,4.53
2022-12-12T16:20:18.403Z,4.07
2022-12-12T16:22:52.433Z,4.30
2022-12-12T16:25:19.729Z,4.37
2022-12-12T16:30:20.564Z,3.80
2022-12-12T16:32:47.645Z,4.23
2022-12-12T16:35:16.672Z,4.43
2022-12-12T16:37:50.430Z,4.87
2022-12-12T16:40:18.896Z,4.10
2022-12-12T16:42:54.513Z,4.57
2022-12-12T16:45:21.588Z,4.47
2022-12-12T16:47:48.747Z,4.05
2022-12-12T16:50:22.339Z,4.20
2022-12-12T16:52:49.565Z,4.00
2022-12-12T16:57:50.851Z,4.10
2022-12-12T17:00:18.292Z,4.03
2022-12-12T17:02:52.374Z,4.20
2022-12-12T17:05:22.403Z,3.70
2022-12-12T17:07:57.507Z,4.23
2022-12-12T17:10:26.173Z,4.50
2022-12-12T17:12:54.217Z,4.10
2022-12-12T17:15:29.352Z,4.37
2022-12-12T17:17:56.656Z,3.57
2022-12-12T17:23:28.355Z,3.80
2022-12-12T17:26:04.238Z,4.03
2022-12-12T17:28:32.750Z,4.00
2022-12-12T17:31:06.572Z,4.50
2022-12-12T17:33:33.733Z,4.40
2022-12-12T17:36:05.898Z,4.28
2022-12-12T17:38:40.404Z,4.40
2022-12-12T17:41:11.113Z,3.53
2022-12-12T17:43:49.349Z,4.13
2022-12-12T17:46:19.375Z,5.13
2022-12-12T17:51:23.802Z,4.00
2022-12-12T17:53:52.484Z,4.63
2022-12-12T17:56:28.415Z,4.73
2022-12-12T17:58:55.564Z,10.23
2022-12-12T18:01:31.454Z,5.00
2022-12-12T18:03:59.420Z,4.53
2022-12-12T18:06:33.523Z,4.83
2022-12-12T18:09:01.032Z,4.63
2022-12-12T18:11:31.037Z,4.60
2022-12-12T18:14:07.497Z,5.00
2022-12-12T18:16:36.203Z,4.40
2022-12-12T18:19:17.473Z,4.50
2022-12-12T18:22:00.764Z,5.00
2022-12-12T18:24:36.486Z,4.30
2022-12-12T18:27:03.879Z,4.80
2022-12-12T18:29:32.165Z,4.33
2022-12-12T18:32:06.447Z,5.20
2022-12-12T18:34:33.729Z,4.50
2022-12-12T18:39:34.774Z,4.27
2022-12-12T18:42:02.052Z,3.83
2022-12-12T18:44:35.609Z,4.10
2022-12-12T18:47:02.799Z,4.10
2022-12-12T18:52:03.494Z,3.37
2022-12-12T18:54:30.948Z,3.40
2022-12-12T18:56:58.087Z,3.70
2022-12-12T18:59:31.336Z,3.83
2022-12-12T19:02:05.403Z,4.10
2022-12-12T19:04:39.419Z,3.73
2022-12-12T19:07:13.463Z,4.50
2022-12-12T19:09:40.958Z,3.73
2022-12-12T19:12:08.410Z,4.67
2022-12-12T19:15:15.235Z,3.63
2022-12-12T19:17:32.754Z,3.73
2022-12-12T19:22:46.058Z,4.33
2022-12-12T19:25:21.330Z,3.87
2022-12-12T19:27:55.291Z,4.60
2022-12-12T19:30:29.492Z,4.30
2022-12-12T19:33:03.469Z,4.13
2022-12-12T19:35:30.603Z,4.30
2022-12-12T19:37:57.737Z,4.05
2022-12-12T19:40:31.429Z,4.47
2022-12-12T19:42:58.782Z,4.30
2022-12-12T19:45:32.534Z,4.97
2022-12-12T19:47:59.733Z,4.57
2022-12-12T19:53:00.513Z,2.70
2022-12-12T19:55:27.775Z,4.03
2022-12-12T20:00:28.482Z,6.13
2022-12-12T20:02:55.829Z,4.27
2022-12-12T20:05:22.996Z,3.70
2022-12-12T20:07:56.436Z,3.85
2022-12-12T20:10:30.435Z,3.87
2022-12-12T20:12:58.855Z,3.73
2022-12-12T20:15:26.239Z,3.60
2022-12-12T20:20:47.311Z,3.40
2022-12-12T20:23:21.579Z,3.73
2022-12-12T20:25:48.715Z,4.23
2022-12-12T20:28:15.864Z,3.97
2022-12-12T20:30:53.257Z,4.65
2022-12-12T20:33:20.897Z,4.28
2022-12-12T20:38:22.323Z,4.20
2022-12-12T20:40:49.539Z,4.80
2022-12-12T20:43:23.446Z,4.10
2022-12-12T20:45:51.097Z,4.63
2022-12-12T20:48:24.554Z,3.90
2022-12-12T20:50:51.851Z,4.57
2022-12-12T20:55:52.417Z,4.17
2022-12-12T20:58:19.704Z,4.33
2022-12-12T21:03:20.490Z,3.40
2022-12-12T21:05:54.433Z,4.25
2022-12-12T21:08:21.762Z,4.00
2022-12-12T21:10:55.361Z,3.57
2022-12-12T21:13:23.327Z,4.20
2022-12-12T21:15:57.618Z,3.80
2022-12-12T21:18:24.767Z,4.00
2022-12-12T21:21:04.356Z,3.83
2022-12-12T21:23:31.540Z,4.17
2022-12-12T21:26:05.499Z,4.30
2022-12-12T21:28:32.649Z,4.63
2022-12-12T21:30:59.818Z,4.05
2022-12-12T21:33:35.417Z,3.83
2022-12-12T21:36:09.814Z,4.37
2022-12-12T21:38:43.365Z,4.17
2022-12-12T21:41:12.102Z,4.50
2022-12-12T21:43:46.409Z,4.07
2022-12-12T21:46:14.855Z,4.33
2022-12-12T21:48:48.569Z,5.10
2022-12-12T21:51:16.251Z,4.63
2022-12-12T21:53:43.426Z,4.57
2022-12-12T21:56:18.510Z,5.10
2022-12-12T21:58:46.526Z,4.20
2022-12-12T22:01:13.640Z,4.23
2022-12-12T22:03:47.406Z,3.88
2022-12-12T22:06:22.314Z,4.50
2022-12-12T22:08:49.743Z,4.37
2022-12-12T22:11:41.836Z,3.73
2022-12-12T22:14:12.024Z,4.13
2022-12-12T22:16:45.331Z,4.67
2022-12-12T22:19:19.395Z,3.63
2022-12-12T22:22:00.464Z,4.23
2022-12-12T22:24:27.622Z,4.00
2022-12-12T22:26:54.949Z,4.35
2022-12-12T22:29:28.480Z,4.33
2022-12-12T22:31:55.840Z,4.10
2022-12-12T22:34:30.398Z,4.00
2022-12-12T22:36:57.553Z,4.00
2022-12-12T22:39:32.429Z,4.00
2022-12-12T22:41:59.867Z,4.30
2022-12-12T22:44:33.488Z,4.30
2022-12-12T22:47:00.729Z,4.00
2022-12-12T22:52:01.834Z,4.33
2022-12-12T22:57:02.389Z,4.40
2022-12-12T22:59:29.473Z,4.20
2022-12-12T23:02:03.649Z,3.78
2022-12-12T23:04:30.865Z,4.20
2022-12-12T23:06:57.982Z,4.15
2022-12-12T23:09:32.444Z,3.38
2022-12-12T23:11:59.839Z,4.27
2022-12-12T23:14:33.464Z,3.73
2022-12-12T23:17:00.683Z,3.80
2022-12-12T23:19:47.530Z,3.60
2022-12-12T23:22:14.841Z,4.40
2022-12-12T23:27:15.493Z,3.63
2022-12-12T23:29:42.771Z,3.47
2022-12-12T23:34:43.854Z,3.43
2022-12-12T23:39:44.470Z,3.60
2022-12-12T23:42:18.346Z,3.23
2022-12-12T23:44:54.416Z,3.40
2022-12-12T23:47:21.666Z,3.73
2022-12-12T23:49:55.418Z,3.53
2022-12-12T23:52:22.644Z,3.40
2022-12-12T23:54:56.668Z,3.42
2022-12-12T23:57:23.835Z,3.10
2022-12-12T23:59:50.938Z,3.75
